sensor_id;sensor_type;location;lat;lon;timestamp;P1;durP1;ratioP1;P2;durP2;ratioP2
21087;SDS011;10702;51.516;9.944;2023-01-29T00:01:53;23.87;;;12.83;;
21087;SDS011;10702;51.516;9.944;2023-01-29T00:04:21;20.70;;;10.67;;
21087;SDS011;10702;51.516;9.944;2023-01-29T00:06:49;27.00;;;11.87;;
21087;SDS011;10702;51.516;9.944;2023-01-29T00:09:18;26.23;;;13.07;;
21087;SDS011;10702;51.516;9.944;2023-01-29T00:11:45;25.87;;;12.30;;
21087;SDS011;10702;51.516;9.944;2023-01-29T00:14:12;24.43;;;12.90;;
21087;SDS011;10702;51.516;9.944;2023-01-29T00:16:40;25.23;;;12.50;;
21087;SDS011;10702;51.516;9.944;2023-01-29T00:19:07;25.57;;;12.40;;
21087;SDS011;10702;51.516;9.944;2023-01-29T00:21:35;26.83;;;13.57;;
21087;SDS011;10702;51.516;9.944;2023-01-29T00:24:03;24.57;;;12.57;;
21087;SDS011;10702;51.516;9.944;2023-01-29T00:26:31;26.17;;;12.97;;
21087;SDS011;10702;51.516;9.944;2023-01-29T00:28:59;26.57;;;14.13;;
21087;SDS011;10702;51.516;9.944;2023-01-29T00:31:27;23.13;;;11.97;;
21087;SDS011;10702;51.516;9.944;2023-01-29T00:33:55;26.40;;;13.47;;
21087;SDS011;10702;51.516;9.944;2023-01-29T00:36:23;24.23;;;11.87;;
21087;SDS011;10702;51.516;9.944;2023-01-29T00:38:54;25.87;;;13.57;;
21087;SDS011;10702;51.516;9.944;2023-01-29T00:41:25;20.60;;;10.63;;
21087;SDS011;10702;51.516;9.944;2023-01-29T00:44:11;28.10;;;14.70;;
21087;SDS011;10702;51.516;9.944;2023-01-29T00:46:56;30.50;;;14.03;;
21087;SDS011;10702;51.516;9.944;2023-01-29T00:49:24;26.50;;;13.37;;
21087;SDS011;10702;51.516;9.944;2023-01-29T00:51:52;24.73;;;12.87;;
21087;SDS011;10702;51.516;9.944;2023-01-29T00:54:37;27.10;;;13.73;;
21087;SDS011;10702;51.516;9.944;2023-01-29T00:57:04;25.53;;;12.67;;
21087;SDS011;10702;51.516;9.944;2023-01-29T00:59:33;25.40;;;13.33;;
21087;SDS011;10702;51.516;9.944;2023-01-29T01:02:00;24.13;;;12.43;;
21087;SDS011;10702;51.516;9.944;2023-01-29T01:04:45;26.23;;;13.20;;
21087;SDS011;10702;51.516;9.944;2023-01-29T01:07:13;27.07;;;13.10;;
21087;SDS011;10702;51.516;9.944;2023-01-29T01:09:40;25.43;;;13.10;;
21087;SDS011;10702;51.516;9.944;2023-01-29T01:12:25;23.67;;;12.80;;
21087;SDS011;10702;51.516;9.944;2023-01-29T01:14:54;26.33;;;12.03;;
21087;SDS011;10702;51.516;9.944;2023-01-29T01:17:21;28.57;;;14.03;;
21087;SDS011;10702;51.516;9.944;2023-01-29T01:19:48;25.67;;;11.30;;
21087;SDS011;10702;51.516;9.944;2023-01-29T01:22:16;23.47;;;11.33;;
21087;SDS011;10702;51.516;9.944;2023-01-29T01:24:43;26.17;;;13.73;;
21087;SDS011;10702;51.516;9.944;2023-01-29T01:27:11;27.90;;;13.53;;
21087;SDS011;10702;51.516;9.944;2023-01-29T01:29:38;31.07;;;13.60;;
21087;SDS011;10702;51.516;9.944;2023-01-29T01:32:07;26.60;;;13.43;;
21087;SDS011;10702;51.516;9.944;2023-01-29T01:34:35;25.30;;;12.90;;
21087;SDS011;10702;51.516;9.944;2023-01-29T01:37:02;26.60;;;13.80;;
21087;SDS011;10702;51.516;9.944;2023-01-29T01:39:29;31.43;;;15.03;;
21087;SDS011;10702;51.516;9.944;2023-01-29T01:41:57;25.87;;;12.63;;
21087;SDS011;10702;51.516;9.944;2023-01-29T01:47:11;30.03;;;14.97;;
21087;SDS011;10702;51.516;9.944;2023-01-29T01:49:39;28.97;;;14.27;;
21087;SDS011;10702;51.516;9.944;2023-01-29T01:52:06;30.70;;;15.70;;
21087;SDS011;10702;51.516;9.944;2023-01-29T01:54:34;31.70;;;15.87;;
21087;SDS011;10702;51.516;9.944;2023-01-29T01:57:02;29.57;;;14.90;;
21087;SDS011;10702;51.516;9.944;2023-01-29T01:59:34;32.10;;;15.50;;
21087;SDS011;10702;51.516;9.944;2023-01-29T02:02:03;32.37;;;15.40;;
21087;SDS011;10702;51.516;9.944;2023-01-29T02:04:50;32.33;;;15.07;;
21087;SDS011;10702;51.516;9.944;2023-01-29T02:07:39;30.60;;;14.67;;
21087;SDS011;10702;51.516;9.944;2023-01-29T02:10:24;31.23;;;14.67;;
21087;SDS011;10702;51.516;9.944;2023-01-29T02:12:53;31.13;;;16.03;;
21087;SDS011;10702;51.516;9.944;2023-01-29T02:15:20;36.37;;;16.17;;
21087;SDS011;10702;51.516;9.944;2023-01-29T02:17:47;28.13;;;13.70;;
21087;SDS011;10702;51.516;9.944;2023-01-29T02:20:17;34.90;;;16.47;;
21087;SDS011;10702;51.516;9.944;2023-01-29T02:25:35;33.93;;;15.73;;
21087;SDS011;10702;51.516;9.944;2023-01-29T02:28:24;29.43;;;14.67;;
21087;SDS011;10702;51.516;9.944;2023-01-29T02:30:58;29.37;;;14.70;;
21087;SDS011;10702;51.516;9.944;2023-01-29T02:33:30;27.93;;;13.53;;
21087;SDS011;10702;51.516;9.944;2023-01-29T02:36:02;31.03;;;14.60;;
21087;SDS011;10702;51.516;9.944;2023-01-29T02:38:33;30.33;;;14.70;;
21087;SDS011;10702;51.516;9.944;2023-01-29T02:41:03;29.20;;;14.97;;
21087;SDS011;10702;51.516;9.944;2023-01-29T02:43:35;29.77;;;15.20;;
21087;SDS011;10702;51.516;9.944;2023-01-29T02:46:05;31.77;;;15.80;;
21087;SDS011;10702;51.516;9.944;2023-01-29T02:48:39;33.83;;;15.07;;
21087;SDS011;10702;51.516;9.944;2023-01-29T02:51:07;28.97;;;14.80;;
21087;SDS011;10702;51.516;9.944;2023-01-29T02:53:37;31.97;;;15.83;;
21087;SDS011;10702;51.516;9.944;2023-01-29T02:56:08;28.00;;;13.33;;
21087;SDS011;10702;51.516;9.944;2023-01-29T02:58:38;27.03;;;13.97;;
21087;SDS011;10702;51.516;9.944;2023-01-29T03:01:08;25.03;;;12.03;;
21087;SDS011;10702;51.516;9.944;2023-01-29T03:03:38;25.83;;;12.80;;
21087;SDS011;10702;51.516;9.944;2023-01-29T03:06:07;32.53;;;15.40;;
21087;SDS011;10702;51.516;9.944;2023-01-29T03:08:38;24.97;;;12.40;;
21087;SDS011;10702;51.516;9.944;2023-01-29T03:11:11;33.70;;;15.57;;
21087;SDS011;10702;51.516;9.944;2023-01-29T03:13:42;26.33;;;13.37;;
21087;SDS011;10702;51.516;9.944;2023-01-29T03:16:13;32.93;;;15.73;;
21087;SDS011;10702;51.516;9.944;2023-01-29T03:18:45;32.77;;;14.87;;
21087;SDS011;10702;51.516;9.944;2023-01-29T03:21:17;27.03;;;12.83;;
21087;SDS011;10702;51.516;9.944;2023-01-29T03:24:10;35.73;;;16.43;;
21087;SDS011;10702;51.516;9.944;2023-01-29T03:26:57;38.30;;;17.57;;
21087;SDS011;10702;51.516;9.944;2023-01-29T03:29:46;43.03;;;18.33;;
21087;SDS011;10702;51.516;9.944;2023-01-29T03:32:32;29.87;;;14.23;;
21087;SDS011;10702;51.516;9.944;2023-01-29T03:35:02;32.50;;;15.77;;
21087;SDS011;10702;51.516;9.944;2023-01-29T03:37:31;34.23;;;15.40;;
21087;SDS011;10702;51.516;9.944;2023-01-29T03:40:00;31.73;;;14.83;;
21087;SDS011;10702;51.516;9.944;2023-01-29T03:42:28;39.10;;;17.40;;
21087;SDS011;10702;51.516;9.944;2023-01-29T03:45:03;36.97;;;16.53;;
21087;SDS011;10702;51.516;9.944;2023-01-29T03:47:36;33.27;;;15.87;;
21087;SDS011;10702;51.516;9.944;2023-01-29T03:50:08;30.43;;;13.67;;
21087;SDS011;10702;51.516;9.944;2023-01-29T03:52:39;39.70;;;17.77;;
21087;SDS011;10702;51.516;9.944;2023-01-29T03:55:09;28.77;;;13.30;;
21087;SDS011;10702;51.516;9.944;2023-01-29T03:57:39;28.43;;;12.60;;
21087;SDS011;10702;51.516;9.944;2023-01-29T04:00:11;39.40;;;17.57;;
21087;SDS011;10702;51.516;9.944;2023-01-29T04:02:41;25.97;;;12.43;;
21087;SDS011;10702;51.516;9.944;2023-01-29T04:05:10;29.37;;;13.23;;
21087;SDS011;10702;51.516;9.944;2023-01-29T04:07:40;37.03;;;16.77;;
21087;SDS011;10702;51.516;9.944;2023-01-29T04:10:11;37.30;;;17.07;;
21087;SDS011;10702;51.516;9.944;2023-01-29T04:12:40;29.23;;;13.77;;
21087;SDS011;10702;51.516;9.944;2023-01-29T04:15:11;28.67;;;14.00;;
21087;SDS011;10702;51.516;9.944;2023-01-29T04:17:40;33.77;;;15.17;;
21087;SDS011;10702;51.516;9.944;2023-01-29T04:20:09;33.27;;;15.67;;
21087;SDS011;10702;51.516;9.944;2023-01-29T04:22:37;35.83;;;14.63;;
21087;SDS011;10702;51.516;9.944;2023-01-29T04:25:06;42.73;;;16.93;;
21087;SDS011;10702;51.516;9.944;2023-01-29T04:27:36;39.40;;;16.43;;
21087;SDS011;10702;51.516;9.944;2023-01-29T04:30:14;45.70;;;19.27;;
21087;SDS011;10702;51.516;9.944;2023-01-29T04:32:50;56.40;;;21.70;;
21087;SDS011;10702;51.516;9.944;2023-01-29T04:35:23;41.93;;;18.60;;
21087;SDS011;10702;51.516;9.944;2023-01-29T04:37:55;39.43;;;17.63;;
21087;SDS011;10702;51.516;9.944;2023-01-29T04:40:29;37.77;;;17.07;;
21087;SDS011;10702;51.516;9.944;2023-01-29T04:42:59;36.67;;;16.73;;
21087;SDS011;10702;51.516;9.944;2023-01-29T04:45:34;33.43;;;14.87;;
21087;SDS011;10702;51.516;9.944;2023-01-29T04:48:08;30.47;;;14.70;;
21087;SDS011;10702;51.516;9.944;2023-01-29T04:50:38;32.77;;;15.70;;
21087;SDS011;10702;51.516;9.944;2023-01-29T04:53:08;33.37;;;15.80;;
21087;SDS011;10702;51.516;9.944;2023-01-29T04:55:39;34.90;;;15.33;;
21087;SDS011;10702;51.516;9.944;2023-01-29T04:58:10;34.30;;;16.77;;
21087;SDS011;10702;51.516;9.944;2023-01-29T05:00:40;32.33;;;15.07;;
21087;SDS011;10702;51.516;9.944;2023-01-29T05:03:08;34.40;;;16.20;;
21087;SDS011;10702;51.516;9.944;2023-01-29T05:05:38;36.13;;;16.50;;
21087;SDS011;10702;51.516;9.944;2023-01-29T05:08:06;38.73;;;17.33;;
21087;SDS011;10702;51.516;9.944;2023-01-29T05:10:34;41.00;;;17.80;;
21087;SDS011;10702;51.516;9.944;2023-01-29T05:13:02;41.00;;;17.60;;
21087;SDS011;10702;51.516;9.944;2023-01-29T05:15:31;39.33;;;17.27;;
21087;SDS011;10702;51.516;9.944;2023-01-29T05:18:01;40.57;;;17.60;;
21087;SDS011;10702;51.516;9.944;2023-01-29T05:20:29;42.90;;;18.90;;
21087;SDS011;10702;51.516;9.944;2023-01-29T05:22:58;41.00;;;17.23;;
21087;SDS011;10702;51.516;9.944;2023-01-29T05:25:26;37.40;;;17.17;;
21087;SDS011;10702;51.516;9.944;2023-01-29T05:27:54;35.03;;;16.07;;
21087;SDS011;10702;51.516;9.944;2023-01-29T05:30:31;42.27;;;16.47;;
21087;SDS011;10702;51.516;9.944;2023-01-29T05:32:58;35.23;;;15.27;;
21087;SDS011;10702;51.516;9.944;2023-01-29T05:35:27;34.97;;;15.93;;
21087;SDS011;10702;51.516;9.944;2023-01-29T05:37:55;38.17;;;15.83;;
21087;SDS011;10702;51.516;9.944;2023-01-29T05:40:23;37.33;;;16.00;;
21087;SDS011;10702;51.516;9.944;2023-01-29T05:42:50;34.13;;;15.40;;
21087;SDS011;10702;51.516;9.944;2023-01-29T05:45:18;33.83;;;14.33;;
21087;SDS011;10702;51.516;9.944;2023-01-29T05:47:46;37.03;;;16.33;;
21087;SDS011;10702;51.516;9.944;2023-01-29T05:50:13;36.00;;;15.97;;
21087;SDS011;10702;51.516;9.944;2023-01-29T05:52:43;38.93;;;16.57;;
21087;SDS011;10702;51.516;9.944;2023-01-29T05:55:10;36.27;;;16.17;;
21087;SDS011;10702;51.516;9.944;2023-01-29T05:57:38;38.60;;;16.80;;
21087;SDS011;10702;51.516;9.944;2023-01-29T06:00:06;33.40;;;15.20;;
21087;SDS011;10702;51.516;9.944;2023-01-29T06:02:34;33.40;;;15.70;;
21087;SDS011;10702;51.516;9.944;2023-01-29T06:05:01;34.97;;;16.23;;
21087;SDS011;10702;51.516;9.944;2023-01-29T06:07:29;36.23;;;16.47;;
21087;SDS011;10702;51.516;9.944;2023-01-29T06:09:57;36.77;;;15.93;;
21087;SDS011;10702;51.516;9.944;2023-01-29T06:12:25;34.17;;;15.03;;
21087;SDS011;10702;51.516;9.944;2023-01-29T06:14:53;32.73;;;15.43;;
21087;SDS011;10702;51.516;9.944;2023-01-29T06:17:20;33.10;;;15.70;;
21087;SDS011;10702;51.516;9.944;2023-01-29T06:19:47;33.00;;;15.80;;
21087;SDS011;10702;51.516;9.944;2023-01-29T06:22:15;33.87;;;15.43;;
21087;SDS011;10702;51.516;9.944;2023-01-29T06:24:42;32.83;;;15.60;;
21087;SDS011;10702;51.516;9.944;2023-01-29T06:27:12;29.00;;;14.17;;
21087;SDS011;10702;51.516;9.944;2023-01-29T06:29:39;31.87;;;15.43;;
21087;SDS011;10702;51.516;9.944;2023-01-29T06:32:06;31.63;;;15.10;;
21087;SDS011;10702;51.516;9.944;2023-01-29T06:34:34;30.90;;;15.00;;
21087;SDS011;10702;51.516;9.944;2023-01-29T06:37:01;31.70;;;14.60;;
21087;SDS011;10702;51.516;9.944;2023-01-29T06:39:29;30.73;;;15.03;;
21087;SDS011;10702;51.516;9.944;2023-01-29T06:41:56;32.17;;;15.27;;
21087;SDS011;10702;51.516;9.944;2023-01-29T06:44:25;32.20;;;15.47;;
21087;SDS011;10702;51.516;9.944;2023-01-29T06:46:53;33.97;;;15.00;;
21087;SDS011;10702;51.516;9.944;2023-01-29T06:49:20;30.00;;;13.83;;
21087;SDS011;10702;51.516;9.944;2023-01-29T06:51:48;28.43;;;13.87;;
21087;SDS011;10702;51.516;9.944;2023-01-29T06:54:15;31.60;;;14.57;;
21087;SDS011;10702;51.516;9.944;2023-01-29T06:56:43;27.80;;;13.90;;
21087;SDS011;10702;51.516;9.944;2023-01-29T06:59:10;29.03;;;13.63;;
21087;SDS011;10702;51.516;9.944;2023-01-29T07:01:39;29.23;;;14.43;;
21087;SDS011;10702;51.516;9.944;2023-01-29T07:04:07;27.60;;;13.90;;
21087;SDS011;10702;51.516;9.944;2023-01-29T07:06:35;29.50;;;14.13;;
21087;SDS011;10702;51.516;9.944;2023-01-29T07:09:02;29.57;;;13.63;;
21087;SDS011;10702;51.516;9.944;2023-01-29T07:11:30;25.97;;;13.43;;
21087;SDS011;10702;51.516;9.944;2023-01-29T07:13:58;28.97;;;13.87;;
21087;SDS011;10702;51.516;9.944;2023-01-29T07:16:25;28.53;;;13.43;;
21087;SDS011;10702;51.516;9.944;2023-01-29T07:18:54;29.70;;;14.30;;
21087;SDS011;10702;51.516;9.944;2023-01-29T07:21:21;25.83;;;12.33;;
21087;SDS011;10702;51.516;9.944;2023-01-29T07:23:49;23.53;;;11.63;;
21087;SDS011;10702;51.516;9.944;2023-01-29T07:26:16;30.10;;;13.57;;
21087;SDS011;10702;51.516;9.944;2023-01-29T07:28:44;26.93;;;13.00;;
21087;SDS011;10702;51.516;9.944;2023-01-29T07:31:12;24.80;;;12.10;;
21087;SDS011;10702;51.516;9.944;2023-01-29T07:33:41;27.00;;;11.90;;
21087;SDS011;10702;51.516;9.944;2023-01-29T07:36:10;24.90;;;12.27;;
21087;SDS011;10702;51.516;9.944;2023-01-29T07:38:38;27.87;;;12.90;;
21087;SDS011;10702;51.516;9.944;2023-01-29T07:41:06;27.23;;;12.20;;
21087;SDS011;10702;51.516;9.944;2023-01-29T07:43:33;24.60;;;12.03;;
21087;SDS011;10702;51.516;9.944;2023-01-29T07:46:01;28.50;;;13.57;;
21087;SDS011;10702;51.516;9.944;2023-01-29T07:48:29;25.67;;;12.33;;
21087;SDS011;10702;51.516;9.944;2023-01-29T07:50:56;25.73;;;12.53;;
21087;SDS011;10702;51.516;9.944;2023-01-29T07:53:26;24.20;;;12.03;;
21087;SDS011;10702;51.516;9.944;2023-01-29T07:55:53;27.17;;;12.53;;
21087;SDS011;10702;51.516;9.944;2023-01-29T07:58:21;26.30;;;13.37;;
21087;SDS011;10702;51.516;9.944;2023-01-29T08:00:48;27.07;;;12.63;;
21087;SDS011;10702;51.516;9.944;2023-01-29T08:03:16;25.83;;;12.87;;
21087;SDS011;10702;51.516;9.944;2023-01-29T08:05:45;24.67;;;11.33;;
21087;SDS011;10702;51.516;9.944;2023-01-29T08:08:12;24.70;;;12.13;;
21087;SDS011;10702;51.516;9.944;2023-01-29T08:10:41;22.87;;;10.90;;
21087;SDS011;10702;51.516;9.944;2023-01-29T08:13:09;25.80;;;11.83;;
21087;SDS011;10702;51.516;9.944;2023-01-29T08:15:36;26.53;;;12.87;;
21087;SDS011;10702;51.516;9.944;2023-01-29T08:18:04;25.47;;;12.57;;
21087;SDS011;10702;51.516;9.944;2023-01-29T08:20:32;23.50;;;11.77;;
21087;SDS011;10702;51.516;9.944;2023-01-29T08:23:00;26.37;;;13.37;;
21087;SDS011;10702;51.516;9.944;2023-01-29T08:25:27;25.17;;;11.80;;
21087;SDS011;10702;51.516;9.944;2023-01-29T08:27:57;23.23;;;10.87;;
21087;SDS011;10702;51.516;9.944;2023-01-29T08:30:24;21.77;;;11.43;;
21087;SDS011;10702;51.516;9.944;2023-01-29T08:32:51;23.50;;;10.93;;
21087;SDS011;10702;51.516;9.944;2023-01-29T08:35:19;24.83;;;11.80;;
21087;SDS011;10702;51.516;9.944;2023-01-29T08:37:53;23.93;;;11.50;;
21087;SDS011;10702;51.516;9.944;2023-01-29T08:40:21;21.17;;;11.47;;
21087;SDS011;10702;51.516;9.944;2023-01-29T08:42:48;27.07;;;12.20;;
21087;SDS011;10702;51.516;9.944;2023-01-29T08:45:17;23.53;;;11.13;;
21087;SDS011;10702;51.516;9.944;2023-01-29T08:47:44;18.93;;;9.33;;
21087;SDS011;10702;51.516;9.944;2023-01-29T08:50:12;22.13;;;11.80;;
21087;SDS011;10702;51.516;9.944;2023-01-29T08:52:41;23.93;;;11.70;;
21087;SDS011;10702;51.516;9.944;2023-01-29T08:55:08;24.73;;;11.87;;
21087;SDS011;10702;51.516;9.944;2023-01-29T08:57:36;27.87;;;12.77;;
21087;SDS011;10702;51.516;9.944;2023-01-29T09:00:03;23.33;;;12.37;;
21087;SDS011;10702;51.516;9.944;2023-01-29T09:02:32;24.37;;;11.90;;
21087;SDS011;10702;51.516;9.944;2023-01-29T09:05:00;21.77;;;11.70;;
21087;SDS011;10702;51.516;9.944;2023-01-29T09:07:27;24.30;;;11.20;;
21087;SDS011;10702;51.516;9.944;2023-01-29T09:09:55;19.83;;;10.83;;
21087;SDS011;10702;51.516;9.944;2023-01-29T09:12:22;22.20;;;11.33;;
21087;SDS011;10702;51.516;9.944;2023-01-29T09:14:50;19.77;;;10.53;;
21087;SDS011;10702;51.516;9.944;2023-01-29T09:17:17;21.80;;;11.07;;
21087;SDS011;10702;51.516;9.944;2023-01-29T09:19:46;20.93;;;10.53;;
21087;SDS011;10702;51.516;9.944;2023-01-29T09:22:13;23.17;;;11.13;;
21087;SDS011;10702;51.516;9.944;2023-01-29T09:24:41;20.77;;;11.10;;
21087;SDS011;10702;51.516;9.944;2023-01-29T09:27:08;19.53;;;9.67;;
21087;SDS011;10702;51.516;9.944;2023-01-29T09:29:36;23.13;;;10.97;;
21087;SDS011;10702;51.516;9.944;2023-01-29T09:32:03;20.90;;;11.23;;
21087;SDS011;10702;51.516;9.944;2023-01-29T09:34:32;17.27;;;9.57;;
21087;SDS011;10702;51.516;9.944;2023-01-29T09:37:01;17.67;;;10.07;;
21087;SDS011;10702;51.516;9.944;2023-01-29T09:39:28;23.23;;;11.60;;
21087;SDS011;10702;51.516;9.944;2023-01-29T09:41:57;21.30;;;10.63;;
21087;SDS011;10702;51.516;9.944;2023-01-29T09:44:29;19.30;;;10.17;;
21087;SDS011;10702;51.516;9.944;2023-01-29T09:46:59;19.40;;;10.40;;
21087;SDS011;10702;51.516;9.944;2023-01-29T09:49:31;19.83;;;10.70;;
21087;SDS011;10702;51.516;9.944;2023-01-29T09:52:04;20.87;;;10.93;;
21087;SDS011;10702;51.516;9.944;2023-01-29T09:54:34;21.23;;;10.97;;
21087;SDS011;10702;51.516;9.944;2023-01-29T09:57:03;18.60;;;10.20;;
21087;SDS011;10702;51.516;9.944;2023-01-29T09:59:31;24.77;;;12.80;;
21087;SDS011;10702;51.516;9.944;2023-01-29T10:02:02;21.03;;;10.67;;
21087;SDS011;10702;51.516;9.944;2023-01-29T10:04:44;27.07;;;12.80;;
21087;SDS011;10702;51.516;9.944;2023-01-29T10:07:24;27.63;;;14.23;;
21087;SDS011;10702;51.516;9.944;2023-01-29T10:09:59;30.93;;;13.27;;
21087;SDS011;10702;51.516;9.944;2023-01-29T10:12:35;20.17;;;10.77;;
21087;SDS011;10702;51.516;9.944;2023-01-29T10:15:09;20.20;;;11.00;;
21087;SDS011;10702;51.516;9.944;2023-01-29T10:17:55;21.43;;;11.00;;
21087;SDS011;10702;51.516;9.944;2023-01-29T10:23:17;21.23;;;10.40;;
21087;SDS011;10702;51.516;9.944;2023-01-29T10:25:47;15.97;;;8.93;;
21087;SDS011;10702;51.516;9.944;2023-01-29T10:28:16;19.33;;;9.90;;
21087;SDS011;10702;51.516;9.944;2023-01-29T10:30:46;16.67;;;8.73;;
21087;SDS011;10702;51.516;9.944;2023-01-29T10:33:16;17.80;;;10.03;;
21087;SDS011;10702;51.516;9.944;2023-01-29T10:35:45;18.57;;;9.63;;
21087;SDS011;10702;51.516;9.944;2023-01-29T10:38:20;16.17;;;9.30;;
21087;SDS011;10702;51.516;9.944;2023-01-29T10:40:51;17.07;;;8.77;;
21087;SDS011;10702;51.516;9.944;2023-01-29T10:43:23;17.47;;;9.57;;
21087;SDS011;10702;51.516;9.944;2023-01-29T10:45:55;14.23;;;8.77;;
21087;SDS011;10702;51.516;9.944;2023-01-29T10:48:47;19.60;;;10.03;;
21087;SDS011;10702;51.516;9.944;2023-01-29T10:51:25;15.30;;;8.47;;
21087;SDS011;10702;51.516;9.944;2023-01-29T10:54:01;17.10;;;8.47;;
21087;SDS011;10702;51.516;9.944;2023-01-29T10:56:34;14.20;;;8.93;;
21087;SDS011;10702;51.516;9.944;2023-01-29T10:59:07;15.43;;;8.27;;
21087;SDS011;10702;51.516;9.944;2023-01-29T11:01:37;13.43;;;8.63;;
21087;SDS011;10702;51.516;9.944;2023-01-29T11:04:05;15.07;;;8.67;;
21087;SDS011;10702;51.516;9.944;2023-01-29T11:06:33;14.33;;;8.50;;
21087;SDS011;10702;51.516;9.944;2023-01-29T11:09:04;15.17;;;7.63;;
21087;SDS011;10702;51.516;9.944;2023-01-29T11:11:33;17.20;;;8.77;;
21087;SDS011;10702;51.516;9.944;2023-01-29T11:14:03;13.57;;;8.13;;
21087;SDS011;10702;51.516;9.944;2023-01-29T11:16:38;17.90;;;8.80;;
21087;SDS011;10702;51.516;9.944;2023-01-29T11:19:06;13.43;;;8.33;;
21087;SDS011;10702;51.516;9.944;2023-01-29T11:21:49;16.03;;;9.03;;
21087;SDS011;10702;51.516;9.944;2023-01-29T11:24:19;15.37;;;9.10;;
21087;SDS011;10702;51.516;9.944;2023-01-29T11:26:47;19.43;;;11.87;;
21087;SDS011;10702;51.516;9.944;2023-01-29T11:29:36;14.27;;;9.07;;
21087;SDS011;10702;51.516;9.944;2023-01-29T11:32:04;12.73;;;8.00;;
21087;SDS011;10702;51.516;9.944;2023-01-29T11:34:32;14.07;;;8.33;;
21087;SDS011;10702;51.516;9.944;2023-01-29T11:37:00;13.77;;;7.93;;
21087;SDS011;10702;51.516;9.944;2023-01-29T11:39:29;13.13;;;7.67;;
21087;SDS011;10702;51.516;9.944;2023-01-29T11:41:58;16.20;;;9.00;;
21087;SDS011;10702;51.516;9.944;2023-01-29T11:44:27;16.53;;;9.20;;
21087;SDS011;10702;51.516;9.944;2023-01-29T11:46:55;22.50;;;11.20;;
21087;SDS011;10702;51.516;9.944;2023-01-29T11:49:29;22.70;;;11.20;;
21087;SDS011;10702;51.516;9.944;2023-01-29T11:51:58;16.67;;;9.33;;
21087;SDS011;10702;51.516;9.944;2023-01-29T11:54:27;17.27;;;9.50;;
21087;SDS011;10702;51.516;9.944;2023-01-29T11:56:58;14.57;;;9.30;;
21087;SDS011;10702;51.516;9.944;2023-01-29T11:59:35;14.20;;;7.87;;
21087;SDS011;10702;51.516;9.944;2023-01-29T12:02:04;17.67;;;9.30;;
21087;SDS011;10702;51.516;9.944;2023-01-29T12:04:38;14.77;;;9.17;;
21087;SDS011;10702;51.516;9.944;2023-01-29T12:07:10;16.23;;;9.40;;
21087;SDS011;10702;51.516;9.944;2023-01-29T12:09:38;17.97;;;10.13;;
21087;SDS011;10702;51.516;9.944;2023-01-29T12:12:16;18.70;;;11.90;;
21087;SDS011;10702;51.516;9.944;2023-01-29T12:14:45;14.73;;;9.60;;
21087;SDS011;10702;51.516;9.944;2023-01-29T12:17:13;18.47;;;10.47;;
21087;SDS011;10702;51.516;9.944;2023-01-29T12:19:43;15.50;;;8.70;;
21087;SDS011;10702;51.516;9.944;2023-01-29T12:22:14;14.67;;;8.90;;
21087;SDS011;10702;51.516;9.944;2023-01-29T12:24:47;15.77;;;8.97;;
21087;SDS011;10702;51.516;9.944;2023-01-29T12:27:18;14.47;;;9.73;;
21087;SDS011;10702;51.516;9.944;2023-01-29T12:29:48;16.13;;;9.73;;
21087;SDS011;10702;51.516;9.944;2023-01-29T12:32:22;15.27;;;9.13;;
21087;SDS011;10702;51.516;9.944;2023-01-29T12:34:53;14.80;;;8.97;;
21087;SDS011;10702;51.516;9.944;2023-01-29T12:37:22;13.73;;;8.47;;
21087;SDS011;10702;51.516;9.944;2023-01-29T12:39:53;14.80;;;9.30;;
21087;SDS011;10702;51.516;9.944;2023-01-29T12:42:22;16.13;;;8.77;;
21087;SDS011;10702;51.516;9.944;2023-01-29T12:44:51;15.93;;;9.03;;
21087;SDS011;10702;51.516;9.944;2023-01-29T12:47:20;14.43;;;8.30;;
21087;SDS011;10702;51.516;9.944;2023-01-29T12:49:50;13.37;;;8.17;;
21087;SDS011;10702;51.516;9.944;2023-01-29T12:52:20;14.03;;;8.37;;
21087;SDS011;10702;51.516;9.944;2023-01-29T12:54:59;15.40;;;9.00;;
21087;SDS011;10702;51.516;9.944;2023-01-29T12:57:31;30.87;;;11.67;;
21087;SDS011;10702;51.516;9.944;2023-01-29T13:00:03;14.90;;;7.80;;
21087;SDS011;10702;51.516;9.944;2023-01-29T13:02:32;16.43;;;8.87;;
21087;SDS011;10702;51.516;9.944;2023-01-29T13:05:02;14.07;;;8.90;;
21087;SDS011;10702;51.516;9.944;2023-01-29T13:07:32;14.00;;;9.20;;
21087;SDS011;10702;51.516;9.944;2023-01-29T13:10:02;15.17;;;9.00;;
21087;SDS011;10702;51.516;9.944;2023-01-29T13:12:32;14.00;;;8.40;;
21087;SDS011;10702;51.516;9.944;2023-01-29T13:15:01;17.37;;;8.97;;
21087;SDS011;10702;51.516;9.944;2023-01-29T13:17:32;14.90;;;8.80;;
21087;SDS011;10702;51.516;9.944;2023-01-29T13:20:02;14.07;;;8.50;;
21087;SDS011;10702;51.516;9.944;2023-01-29T13:22:31;17.90;;;9.50;;
21087;SDS011;10702;51.516;9.944;2023-01-29T13:25:00;17.83;;;9.43;;
21087;SDS011;10702;51.516;9.944;2023-01-29T13:27:32;17.60;;;9.33;;
21087;SDS011;10702;51.516;9.944;2023-01-29T13:30:01;15.47;;;8.90;;
21087;SDS011;10702;51.516;9.944;2023-01-29T13:32:29;18.00;;;9.60;;
21087;SDS011;10702;51.516;9.944;2023-01-29T13:34:57;18.87;;;10.63;;
21087;SDS011;10702;51.516;9.944;2023-01-29T13:37:26;17.57;;;9.97;;
21087;SDS011;10702;51.516;9.944;2023-01-29T13:39:55;17.70;;;9.57;;
21087;SDS011;10702;51.516;9.944;2023-01-29T13:42:25;24.37;;;12.97;;
21087;SDS011;10702;51.516;9.944;2023-01-29T13:45:01;23.50;;;11.93;;
21087;SDS011;10702;51.516;9.944;2023-01-29T13:47:30;15.70;;;9.17;;
21087;SDS011;10702;51.516;9.944;2023-01-29T13:49:59;14.93;;;9.33;;
21087;SDS011;10702;51.516;9.944;2023-01-29T13:52:33;14.70;;;8.33;;
21087;SDS011;10702;51.516;9.944;2023-01-29T13:55:02;16.03;;;8.73;;
21087;SDS011;10702;51.516;9.944;2023-01-29T13:57:46;14.27;;;8.00;;
21087;SDS011;10702;51.516;9.944;2023-01-29T14:06:06;15.43;;;8.57;;
21087;SDS011;10702;51.516;9.944;2023-01-29T14:08:37;12.20;;;7.67;;
21087;SDS011;10702;51.516;9.944;2023-01-29T14:11:26;14.93;;;8.60;;
21087;SDS011;10702;51.516;9.944;2023-01-29T14:13:54;18.00;;;9.67;;
21087;SDS011;10702;51.516;9.944;2023-01-29T14:16:26;16.13;;;9.20;;
21087;SDS011;10702;51.516;9.944;2023-01-29T14:18:55;16.17;;;9.53;;
21087;SDS011;10702;51.516;9.944;2023-01-29T14:21:25;14.83;;;8.67;;
21087;SDS011;10702;51.516;9.944;2023-01-29T14:23:55;15.93;;;9.50;;
21087;SDS011;10702;51.516;9.944;2023-01-29T14:26:25;16.67;;;9.30;;
21087;SDS011;10702;51.516;9.944;2023-01-29T14:29:01;17.27;;;9.07;;
21087;SDS011;10702;51.516;9.944;2023-01-29T14:31:30;17.53;;;9.73;;
21087;SDS011;10702;51.516;9.944;2023-01-29T14:33:59;15.00;;;8.80;;
21087;SDS011;10702;51.516;9.944;2023-01-29T14:36:28;16.00;;;9.57;;
21087;SDS011;10702;51.516;9.944;2023-01-29T14:39:04;18.67;;;9.70;;
21087;SDS011;10702;51.516;9.944;2023-01-29T14:41:32;17.33;;;9.30;;
21087;SDS011;10702;51.516;9.944;2023-01-29T14:46:46;16.03;;;8.97;;
21087;SDS011;10702;51.516;9.944;2023-01-29T14:51:57;15.80;;;9.30;;
21087;SDS011;10702;51.516;9.944;2023-01-29T14:54:26;14.83;;;8.33;;
21087;SDS011;10702;51.516;9.944;2023-01-29T14:56:56;15.13;;;8.60;;
21087;SDS011;10702;51.516;9.944;2023-01-29T14:59:26;13.70;;;8.17;;
21087;SDS011;10702;51.516;9.944;2023-01-29T15:01:56;14.20;;;8.37;;
21087;SDS011;10702;51.516;9.944;2023-01-29T15:04:25;16.10;;;8.33;;